createdAt,value
2019-02-06T00:00:42.096Z,26.47
2019-02-06T00:03:12.035Z,24.77
2019-02-06T00:05:40.284Z,25.57
2019-02-06T00:08:08.590Z,24.18
2019-02-06T00:10:36.843Z,24.50
2019-02-06T00:13:05.115Z,24.30
2019-02-06T00:15:33.400Z,23.18
2019-02-06T00:18:01.663Z,23.73
2019-02-06T00:20:30.484Z,22.22
2019-02-06T00:22:58.758Z,23.02
2019-02-06T00:25:27.121Z,22.55
2019-02-06T00:27:55.444Z,21.60
2019-02-06T00:30:25.163Z,21.45
2019-02-06T00:32:53.550Z,20.70
2019-02-06T00:35:25.918Z,19.42
2019-02-06T00:37:52.170Z,21.87
2019-02-06T00:40:20.530Z,20.68
2019-02-06T00:42:48.821Z,20.87
2019-02-06T00:45:17.260Z,19.57
2019-02-06T00:47:45.511Z,18.62
2019-02-06T00:50:17.128Z,19.23
2019-02-06T00:52:45.396Z,18.52
2019-02-06T00:55:14.846Z,18.05
2019-02-06T00:57:43.090Z,16.67
2019-02-06T01:00:19.205Z,16.57
2019-02-06T01:02:47.557Z,16.15
2019-02-06T01:05:16.812Z,15.33
2019-02-06T01:07:45.166Z,15.68
2019-02-06T01:10:19.097Z,16.57
2019-02-06T01:12:47.376Z,16.37
2019-02-06T01:15:15.665Z,15.18
2019-02-06T01:17:43.923Z,14.10
2019-02-06T01:20:16.845Z,15.95
2019-02-06T01:22:45.094Z,13.83
2019-02-06T01:25:15.385Z,14.85
2019-02-06T01:27:43.664Z,14.68
2019-02-06T01:30:18.804Z,15.88
2019-02-06T01:32:47.070Z,14.47
2019-02-06T01:35:15.821Z,14.68
2019-02-06T01:37:44.070Z,14.30
2019-02-06T01:40:17.665Z,14.13
2019-02-06T01:42:45.918Z,13.48
2019-02-06T01:45:18.177Z,12.93
2019-02-06T01:47:46.461Z,13.20
2019-02-06T01:50:17.061Z,12.65
2019-02-06T01:52:45.352Z,11.80
2019-02-06T01:55:14.932Z,12.15
2019-02-06T01:57:43.228Z,11.25
2019-02-06T02:00:22.691Z,11.48
2019-02-06T02:02:51.101Z,10.47
2019-02-06T02:05:21.006Z,11.03
2019-02-06T02:07:50.169Z,10.93
2019-02-06T02:10:19.615Z,10.58
2019-02-06T02:12:48.205Z,10.83
2019-02-06T02:15:17.900Z,11.25
2019-02-06T02:17:46.157Z,11.78
2019-02-06T02:20:25.536Z,11.05
2019-02-06T02:22:54.243Z,11.27
2019-02-06T02:25:22.550Z,12.05
2019-02-06T02:27:51.026Z,11.03
2019-02-06T02:30:35.898Z,11.50
2019-02-06T02:33:04.271Z,11.48
2019-02-06T02:35:32.520Z,12.00
2019-02-06T02:38:00.775Z,11.40
2019-02-06T02:40:29.079Z,11.33
2019-02-06T02:42:57.321Z,11.35
2019-02-06T02:45:25.868Z,11.18
2019-02-06T02:47:54.173Z,11.50
2019-02-06T02:50:22.592Z,10.80
2019-02-06T02:52:51.210Z,11.18
2019-02-06T02:55:19.509Z,11.05
2019-02-06T02:57:47.756Z,12.33
2019-02-06T03:00:26.647Z,11.37
2019-02-06T03:02:58.992Z,10.98
2019-02-06T03:05:29.139Z,11.53
2019-02-06T03:07:57.416Z,11.15
2019-02-06T03:10:25.676Z,11.25
2019-02-06T03:12:53.956Z,10.80
2019-02-06T03:15:22.693Z,11.63
2019-02-06T03:17:50.953Z,11.18
2019-02-06T03:20:19.260Z,11.65
2019-02-06T03:22:47.507Z,11.40
2019-02-06T03:25:15.764Z,11.18
2019-02-06T03:27:44.074Z,11.73
2019-02-06T03:30:15.254Z,10.75
2019-02-06T03:32:43.778Z,11.15
2019-02-06T03:35:12.026Z,10.58
2019-02-06T03:37:40.343Z,11.30
2019-02-06T03:40:14.065Z,11.40
2019-02-06T03:42:42.316Z,10.67
2019-02-06T03:45:12.103Z,12.65
2019-02-06T03:47:40.517Z,10.53
2019-02-06T03:50:14.823Z,12.53
2019-02-06T03:52:43.073Z,12.70
2019-02-06T03:55:12.199Z,11.78
2019-02-06T03:57:40.452Z,12.13
2019-02-06T04:00:14.802Z,12.00
2019-02-06T04:02:43.116Z,12.07
2019-02-06T04:05:12.104Z,11.65
2019-02-06T04:07:40.374Z,12.30
2019-02-06T04:10:16.734Z,11.50
2019-02-06T04:12:45.016Z,10.70
2019-02-06T04:15:13.695Z,11.05
2019-02-06T04:17:41.961Z,11.60
2019-02-06T04:20:14.392Z,11.57
2019-02-06T04:22:42.664Z,11.87
2019-02-06T04:25:13.548Z,10.63
2019-02-06T04:27:42.087Z,11.35
2019-02-06T04:30:16.249Z,10.88
2019-02-06T04:32:44.503Z,11.30
2019-02-06T04:35:13.700Z,10.98
2019-02-06T04:37:42.004Z,11.45
2019-02-06T04:40:13.158Z,10.53
2019-02-06T04:42:41.403Z,10.63
2019-02-06T04:45:11.900Z,10.75
2019-02-06T04:47:40.141Z,10.80
2019-02-06T04:50:11.141Z,11.00
2019-02-06T04:52:39.415Z,10.35
2019-02-06T04:55:10.176Z,10.10
2019-02-06T04:57:38.456Z,10.53
2019-02-06T05:00:24.968Z,11.08
2019-02-06T05:02:53.228Z,10.72
2019-02-06T05:05:21.553Z,12.07
2019-02-06T05:07:49.893Z,11.33
2019-02-06T05:10:18.214Z,11.22
2019-02-06T05:12:46.783Z,10.80
2019-02-06T05:15:16.368Z,11.48
2019-02-06T05:17:44.737Z,11.15
2019-02-06T05:20:22.287Z,11.05
2019-02-06T05:22:50.609Z,11.60
2019-02-06T05:25:18.923Z,11.00
2019-02-06T05:27:47.698Z,11.22
2019-02-06T05:30:16.095Z,11.18
2019-02-06T05:32:44.467Z,10.35
2019-02-06T05:35:12.694Z,11.05
2019-02-06T05:37:40.992Z,10.32
2019-02-06T05:40:10.960Z,10.80
2019-02-06T05:42:39.370Z,10.93
2019-02-06T05:45:09.593Z,10.80
2019-02-06T05:47:37.969Z,10.40
2019-02-06T05:50:09.731Z,10.10
2019-02-06T05:52:38.055Z,10.20
2019-02-06T05:55:07.248Z,9.78
2019-02-06T05:57:35.524Z,10.50
2019-02-06T06:00:10.354Z,10.50
2019-02-06T06:02:38.633Z,10.07
2019-02-06T06:05:06.872Z,10.27
2019-02-06T06:07:44.572Z,9.37
2019-02-06T06:10:08.400Z,10.08
2019-02-06T06:12:36.650Z,10.32
2019-02-06T06:15:06.974Z,10.58
2019-02-06T06:17:35.227Z,10.40
2019-02-06T06:20:03.726Z,10.70
2019-02-06T06:22:32.107Z,10.90
2019-02-06T06:25:00.979Z,10.72
2019-02-06T06:27:29.314Z,10.53
2019-02-06T06:29:57.583Z,10.48
2019-02-06T06:32:26.137Z,11.43
2019-02-06T06:34:54.381Z,10.48
2019-02-06T06:37:22.751Z,11.10
2019-02-06T06:39:51.011Z,10.55
2019-02-06T06:42:19.268Z,11.30
2019-02-06T06:44:47.545Z,10.18
2019-02-06T06:47:15.868Z,10.82
2019-02-06T06:49:44.152Z,10.50
2019-02-06T06:52:12.407Z,11.15
2019-02-06T06:54:40.687Z,11.03
2019-02-06T06:57:09.032Z,10.90
2019-02-06T06:59:37.325Z,10.68
2019-02-06T07:02:05.586Z,11.28
2019-02-06T07:04:34.255Z,11.40
2019-02-06T07:07:02.947Z,11.20
2019-02-06T07:09:31.229Z,10.53
2019-02-06T07:11:59.542Z,12.10
2019-02-06T07:14:27.827Z,11.33
2019-02-06T07:16:56.091Z,10.68
2019-02-06T07:19:24.339Z,11.15
2019-02-06T07:21:53.057Z,11.22
2019-02-06T07:24:21.325Z,11.25
2019-02-06T07:26:49.656Z,11.55
2019-02-06T07:29:18.024Z,11.48
2019-02-06T07:31:46.282Z,11.20
2019-02-06T07:34:14.539Z,10.80
2019-02-06T07:36:42.803Z,9.97
2019-02-06T07:39:11.063Z,10.93
2019-02-06T07:41:39.327Z,10.75
2019-02-06T07:44:07.610Z,10.72
2019-02-06T07:46:36.039Z,10.75
2019-02-06T07:49:04.493Z,10.63
2019-02-06T07:51:32.745Z,10.88
2019-02-06T07:54:01.016Z,11.53
2019-02-06T07:56:29.269Z,11.15
2019-02-06T07:58:57.568Z,11.18
2019-02-06T08:01:25.819Z,10.58
2019-02-06T08:03:54.132Z,11.50
2019-02-06T08:06:22.470Z,11.60
2019-02-06T08:08:50.714Z,13.43
2019-02-06T08:11:18.974Z,12.53
2019-02-06T08:13:47.258Z,12.23
2019-02-06T08:16:15.676Z,12.05
2019-02-06T08:18:43.981Z,12.50
2019-02-06T08:21:12.234Z,11.63
2019-02-06T08:23:40.506Z,12.00
2019-02-06T08:26:08.887Z,12.63
2019-02-06T08:28:37.449Z,12.25
2019-02-06T08:31:05.705Z,11.88
2019-02-06T08:33:34.075Z,11.22
2019-02-06T08:36:02.323Z,11.50
2019-02-06T08:38:30.627Z,11.75
2019-02-06T08:40:58.881Z,11.25
2019-02-06T08:43:27.138Z,10.72
2019-02-06T08:45:55.429Z,10.88
2019-02-06T08:48:23.874Z,11.10
2019-02-06T08:50:52.262Z,10.85
2019-02-06T08:53:20.591Z,11.12
2019-02-06T08:55:48.853Z,11.03
2019-02-06T08:58:17.108Z,11.12
2019-02-06T09:00:45.601Z,11.60
2019-02-06T09:03:13.889Z,12.05
2019-02-06T09:05:42.173Z,11.90
2019-02-06T09:08:10.558Z,11.15
2019-02-06T09:10:38.873Z,11.47
2019-02-06T09:13:07.301Z,11.33
2019-02-06T09:15:35.829Z,11.12
2019-02-06T09:18:04.752Z,11.20
2019-02-06T09:20:33.611Z,10.45
2019-02-06T09:23:01.924Z,10.83
2019-02-06T09:25:30.400Z,12.23
2019-02-06T09:27:58.667Z,11.85
2019-02-06T09:30:36.167Z,11.35
2019-02-06T09:33:05.008Z,11.35
2019-02-06T09:35:33.479Z,10.75
2019-02-06T09:38:01.773Z,10.88
2019-02-06T09:40:31.369Z,11.40
2019-02-06T09:42:59.758Z,10.32
2019-02-06T09:45:28.024Z,11.13
2019-02-06T09:47:56.355Z,10.28
2019-02-06T09:50:30.128Z,10.23
2019-02-06T09:52:58.467Z,9.37
2019-02-06T09:55:26.820Z,10.30
2019-02-06T09:57:55.060Z,9.55
2019-02-06T10:00:32.154Z,9.73
2019-02-06T10:03:01.056Z,10.32
2019-02-06T10:05:29.540Z,9.43
2019-02-06T10:07:57.900Z,10.03
2019-02-06T10:10:27.291Z,9.40
2019-02-06T10:12:55.577Z,9.03
2019-02-06T10:15:31.995Z,9.45
2019-02-06T10:18:00.792Z,9.65
2019-02-06T10:20:35.038Z,9.08
2019-02-06T10:23:03.293Z,9.43
2019-02-06T10:25:31.592Z,9.80
2019-02-06T10:28:00.105Z,9.20
2019-02-06T10:30:37.641Z,8.63
2019-02-06T10:33:05.943Z,9.10
2019-02-06T10:35:34.193Z,8.05
2019-02-06T10:38:02.448Z,8.10
2019-02-06T10:40:30.929Z,8.08
2019-02-06T10:42:59.476Z,8.20
2019-02-06T10:45:27.803Z,7.53
2019-02-06T10:47:56.453Z,7.70
2019-02-06T10:50:27.628Z,7.15
2019-02-06T10:52:55.942Z,7.70
2019-02-06T10:55:24.185Z,7.40
2019-02-06T10:57:52.496Z,7.62
2019-02-06T11:00:32.883Z,7.70
2019-02-06T11:03:01.194Z,7.90
2019-02-06T11:05:29.742Z,7.40
2019-02-06T11:07:58.064Z,7.87
2019-02-06T11:10:27.804Z,7.33
2019-02-06T11:12:56.036Z,7.65
2019-02-06T11:15:24.534Z,7.67
2019-02-06T11:17:53.167Z,7.53
2019-02-06T11:20:24.248Z,7.78
2019-02-06T11:22:52.505Z,7.30
2019-02-06T11:25:20.787Z,7.53
2019-02-06T11:27:49.050Z,7.53
2019-02-06T11:30:28.753Z,7.28
2019-02-06T11:32:57.079Z,7.22
2019-02-06T11:35:25.534Z,7.10
2019-02-06T11:37:53.921Z,7.50
2019-02-06T11:40:24.117Z,7.50
2019-02-06T11:42:53.197Z,6.95
2019-02-06T11:45:23.927Z,6.85
2019-02-06T11:47:52.184Z,7.12
2019-02-06T11:50:23.367Z,6.78
2019-02-06T11:52:52.664Z,6.95
2019-02-06T11:55:29.501Z,7.40
2019-02-06T11:57:57.974Z,6.97
2019-02-06T12:00:39.981Z,6.97
2019-02-06T12:03:08.324Z,7.15
2019-02-06T12:05:36.602Z,7.45
2019-02-06T12:08:04.922Z,7.28
2019-02-06T12:10:34.109Z,6.90
2019-02-06T12:13:03.112Z,7.30
2019-02-06T12:15:31.439Z,7.25
2019-02-06T12:17:59.858Z,7.45
2019-02-06T12:20:28.098Z,6.72
2019-02-06T12:22:56.383Z,7.50
2019-02-06T12:25:24.779Z,8.00
2019-02-06T12:27:55.669Z,7.60
2019-02-06T12:30:35.852Z,7.87
2019-02-06T12:33:04.563Z,7.30
2019-02-06T12:35:32.858Z,7.70
2019-02-06T12:38:01.291Z,7.70
2019-02-06T12:40:29.844Z,7.28
2019-02-06T12:42:58.081Z,8.10
2019-02-06T12:45:26.382Z,7.53
2019-02-06T12:47:55.003Z,6.95
2019-02-06T12:50:24.513Z,7.28
2019-02-06T12:52:52.764Z,7.30
2019-02-06T12:55:35.911Z,7.90
2019-02-06T12:58:04.497Z,7.53
2019-02-06T13:00:35.875Z,7.20
2019-02-06T13:03:04.198Z,7.33
2019-02-06T13:05:32.776Z,7.53
2019-02-06T13:08:01.301Z,7.85
2019-02-06T13:10:33.841Z,7.62
2019-02-06T13:12:59.627Z,7.30
2019-02-06T13:15:27.895Z,8.25
2019-02-06T13:17:56.329Z,8.45
2019-02-06T13:20:35.433Z,7.62
2019-02-06T13:23:04.282Z,7.90
2019-02-06T13:25:32.676Z,7.85
2019-02-06T13:28:01.006Z,7.55
2019-02-06T13:30:37.788Z,7.97
2019-02-06T13:33:07.523Z,7.47
2019-02-06T13:35:36.548Z,7.08
2019-02-06T13:38:05.007Z,6.72
2019-02-06T13:40:44.821Z,7.05
2019-02-06T13:43:03.681Z,6.87
2019-02-06T13:45:35.051Z,6.75
2019-02-06T13:48:03.294Z,6.62
2019-02-06T13:50:31.571Z,6.60
2019-02-06T13:52:59.858Z,6.95
2019-02-06T13:55:28.127Z,6.42
2019-02-06T13:57:56.401Z,6.70
2019-02-06T14:00:30.668Z,6.08
2019-02-06T14:02:58.990Z,6.63
2019-02-06T14:05:28.780Z,6.75
2019-02-06T14:07:59.440Z,8.05
2019-02-06T14:10:29.663Z,7.87
2019-02-06T14:12:57.907Z,7.67
2019-02-06T14:15:38.012Z,8.13
2019-02-06T14:18:06.263Z,7.00
2019-02-06T14:20:34.540Z,6.95
2019-02-06T14:23:21.699Z,6.83
2019-02-06T14:26:01.784Z,7.45
2019-02-06T14:28:51.391Z,6.60
2019-02-06T14:31:25.579Z,6.90
2019-02-06T14:36:44.337Z,6.62
2019-02-06T14:39:15.849Z,8.00
2019-02-06T14:41:47.737Z,6.90
2019-02-06T14:44:52.830Z,6.87
2019-02-06T14:47:30.146Z,7.78
2019-02-06T14:50:10.406Z,7.22
2019-02-06T14:52:44.514Z,7.00
2019-02-06T14:55:24.943Z,7.17
2019-02-06T14:57:56.479Z,6.17
2019-02-06T15:00:59.439Z,6.53
2019-02-06T15:03:50.908Z,7.20
2019-02-06T15:06:28.001Z,6.92
2019-02-06T15:09:16.127Z,6.75
2019-02-06T15:11:59.183Z,6.67
2019-02-06T15:14:30.700Z,7.10
2019-02-06T15:17:30.903Z,6.78
2019-02-06T15:20:28.036Z,6.90
2019-02-06T15:23:18.075Z,7.78
2019-02-06T15:25:55.431Z,6.60
2019-02-06T15:28:52.380Z,6.60
2019-02-06T15:31:35.425Z,6.85
2019-02-06T15:34:26.716Z,6.62
2019-02-06T15:37:09.967Z,6.43
2019-02-06T15:39:50.132Z,6.78
2019-02-06T15:42:36.501Z,6.58
2019-02-06T15:45:16.655Z,5.60
2019-02-06T15:47:50.899Z,6.30
2019-02-06T15:50:31.200Z,6.50
2019-02-06T15:53:08.755Z,6.67
2019-02-06T15:55:46.009Z,6.78
2019-02-06T15:58:22.601Z,7.15
2019-02-06T16:01:18.743Z,7.10
2019-02-06T16:04:32.523Z,7.20
2019-02-06T16:07:12.526Z,7.10
2019-02-06T16:09:46.540Z,6.53
2019-02-06T16:12:18.434Z,6.53
2019-02-06T16:14:58.965Z,7.07
2019-02-06T16:17:33.386Z,6.97
2019-02-06T16:20:24.745Z,7.28
2019-02-06T16:23:04.989Z,7.43
2019-02-06T16:25:47.886Z,6.83
2019-02-06T16:28:22.988Z,7.65
2019-02-06T16:31:09.549Z,7.93
2019-02-06T16:33:59.499Z,7.37
2019-02-06T16:36:46.416Z,7.53
2019-02-06T16:39:43.087Z,7.37
2019-02-06T16:42:20.817Z,7.50
2019-02-06T16:45:07.255Z,6.83
2019-02-06T16:47:45.576Z,6.90
2019-02-06T16:50:26.648Z,7.15
2019-02-06T16:53:16.193Z,7.05
2019-02-06T16:56:07.335Z,6.55
2019-02-06T16:58:56.735Z,6.90
2019-02-06T17:02:01.611Z,6.83
2019-02-06T17:04:35.783Z,7.65
2019-02-06T17:07:31.472Z,9.25
2019-02-06T17:10:06.025Z,8.60
2019-02-06T17:15:18.392Z,8.70
2019-02-06T17:17:50.066Z,8.60
2019-02-06T17:20:42.847Z,8.87
2019-02-06T17:23:16.897Z,8.75
2019-02-06T17:26:11.249Z,8.18
2019-02-06T17:28:48.238Z,8.23
2019-02-06T17:31:22.490Z,8.50
2019-02-06T17:33:59.879Z,8.30
2019-02-06T17:36:36.870Z,8.98
2019-02-06T17:39:24.497Z,8.45
2019-02-06T17:42:15.142Z,8.45
2019-02-06T17:44:53.507Z,7.72
2019-02-06T17:47:34.272Z,7.95
2019-02-06T17:50:20.673Z,8.75
2019-02-06T17:53:04.415Z,8.50
2019-02-06T17:55:32.741Z,8.00
2019-02-06T17:58:01.070Z,8.40
2019-02-06T18:00:32.731Z,8.13
2019-02-06T18:03:04.751Z,8.23
2019-02-06T18:05:33.002Z,7.67
2019-02-06T18:08:01.675Z,7.20
2019-02-06T18:10:29.924Z,7.40
2019-02-06T18:12:58.197Z,7.63
2019-02-06T18:15:26.445Z,7.78
2019-02-06T18:17:54.997Z,7.50
2019-02-06T18:20:23.277Z,7.23
2019-02-06T18:22:51.569Z,7.53
2019-02-06T18:25:20.490Z,7.70
2019-02-06T18:27:48.733Z,7.33
2019-02-06T18:30:22.478Z,7.10
2019-02-06T18:32:50.896Z,7.40
2019-02-06T18:35:19.330Z,6.80
2019-02-06T18:37:49.819Z,6.83
2019-02-06T18:40:18.481Z,7.33
2019-02-06T18:42:47.105Z,8.00
2019-02-06T18:45:17.488Z,8.03
2019-02-06T18:47:45.944Z,7.50
2019-02-06T18:50:23.541Z,7.87
2019-02-06T18:52:51.798Z,7.43
2019-02-06T18:55:21.313Z,7.75
2019-02-06T18:57:49.952Z,8.28
2019-02-06T19:00:24.659Z,7.72
2019-02-06T19:02:52.989Z,7.90
2019-02-06T19:05:24.973Z,7.00
2019-02-06T19:07:53.851Z,7.20
2019-02-06T19:10:23.834Z,7.35
2019-02-06T19:12:52.123Z,7.83
2019-02-06T19:15:20.482Z,7.33
2019-02-06T19:17:49.893Z,7.67
2019-02-06T19:20:19.016Z,7.58
2019-02-06T19:22:47.262Z,8.03
2019-02-06T19:25:18.651Z,8.35
2019-02-06T19:27:46.967Z,7.58
2019-02-06T19:30:27.009Z,7.95
2019-02-06T19:32:55.799Z,8.43
2019-02-06T19:35:24.302Z,8.57
2019-02-06T19:37:52.632Z,8.63
2019-02-06T19:40:21.523Z,8.13
2019-02-06T19:42:59.092Z,8.03
2019-02-06T19:45:19.875Z,8.38
2019-02-06T19:47:48.201Z,8.38
2019-02-06T19:50:22.817Z,9.75
2019-02-06T19:52:51.140Z,9.10
2019-02-06T19:55:19.392Z,8.55
2019-02-06T19:57:47.712Z,8.38
2019-02-06T20:00:21.793Z,8.13
2019-02-06T20:02:50.088Z,8.07
2019-02-06T20:05:19.405Z,8.03
2019-02-06T20:07:47.960Z,8.40
2019-02-06T20:10:25.174Z,8.38
2019-02-06T20:12:53.813Z,7.57
2019-02-06T20:15:22.092Z,7.83
2019-02-06T20:17:50.902Z,7.77
2019-02-06T20:20:24.722Z,7.62
2019-02-06T20:22:52.072Z,7.77
2019-02-06T20:25:20.429Z,8.30
2019-02-06T20:27:48.768Z,8.70
2019-02-06T20:30:32.331Z,8.33
2019-02-06T20:33:00.576Z,7.75
2019-02-06T20:35:28.862Z,8.35
2019-02-06T20:37:57.496Z,8.28
2019-02-06T20:40:34.183Z,8.70
2019-02-06T20:43:02.473Z,8.63
2019-02-06T20:45:31.141Z,8.88
2019-02-06T20:47:59.490Z,8.03
2019-02-06T20:50:29.707Z,8.60
2019-02-06T20:52:58.572Z,8.63
2019-02-06T20:55:26.839Z,9.07
2019-02-06T20:57:55.248Z,7.60
2019-02-06T21:00:28.680Z,9.68
2019-02-06T21:02:56.923Z,8.40
2019-02-06T21:05:25.192Z,9.00
2019-02-06T21:07:53.739Z,8.48
2019-02-06T21:10:27.484Z,8.63
2019-02-06T21:12:55.819Z,8.93
2019-02-06T21:15:24.092Z,9.38
2019-02-06T21:17:52.439Z,9.03
2019-02-06T21:20:25.090Z,8.35
2019-02-06T21:22:53.890Z,10.03
2019-02-06T21:25:23.788Z,8.68
2019-02-06T21:27:52.106Z,9.45
2019-02-06T21:30:29.155Z,9.90
2019-02-06T21:32:57.621Z,9.93
2019-02-06T21:35:26.464Z,11.73
2019-02-06T21:37:55.282Z,11.28
2019-02-06T21:40:25.852Z,10.35
2019-02-06T21:42:54.221Z,10.90
2019-02-06T21:45:22.545Z,11.30
2019-02-06T21:47:50.874Z,10.50
2019-02-06T21:50:21.888Z,10.28
2019-02-06T21:52:50.333Z,10.77
2019-02-06T21:55:23.110Z,11.83
2019-02-06T21:57:51.734Z,11.75
2019-02-06T22:00:28.407Z,11.83
2019-02-06T22:02:56.676Z,11.60
2019-02-06T22:05:25.007Z,12.50
2019-02-06T22:07:53.799Z,12.13
2019-02-06T22:10:22.813Z,13.18
2019-02-06T22:12:51.143Z,12.57
2019-02-06T22:15:22.025Z,11.75
2019-02-06T22:17:50.330Z,12.13
2019-02-06T22:20:18.840Z,11.80
2019-02-06T22:22:47.632Z,11.60
2019-02-06T22:25:15.966Z,11.20
2019-02-06T22:27:44.283Z,11.55
2019-02-06T22:30:17.909Z,12.13
2019-02-06T22:35:13.930Z,11.53
2019-02-06T22:37:42.504Z,11.00
2019-02-06T22:40:15.641Z,10.72
2019-02-06T22:42:43.932Z,10.63
2019-02-06T22:45:24.040Z,10.50
2019-02-06T22:47:52.316Z,10.85
2019-02-06T22:50:22.690Z,10.85
2019-02-06T22:52:50.964Z,11.00
2019-02-06T22:55:19.217Z,11.18
2019-02-06T22:57:47.491Z,10.48
2019-02-06T23:00:48.153Z,10.30
2019-02-06T23:03:20.048Z,10.38
2019-02-06T23:05:48.300Z,10.23
2019-02-06T23:08:16.591Z,10.58
2019-02-06T23:10:44.915Z,10.73
2019-02-06T23:13:13.200Z,10.53
2019-02-06T23:15:41.464Z,10.13
2019-02-06T23:18:09.745Z,10.35
2019-02-06T23:20:38.011Z,10.38
2019-02-06T23:23:06.345Z,10.25
2019-02-06T23:25:34.666Z,10.65
2019-02-06T23:28:03.051Z,10.58
2019-02-06T23:30:31.776Z,10.38
2019-02-06T23:33:00.066Z,10.50
2019-02-06T23:35:28.317Z,10.28
2019-02-06T23:37:56.569Z,11.08
2019-02-06T23:40:24.852Z,10.90
2019-02-06T23:42:53.418Z,11.03
2019-02-06T23:45:22.081Z,10.53
2019-02-06T23:47:50.357Z,10.48
2019-02-06T23:50:18.656Z,11.53
2019-02-06T23:52:46.906Z,11.87
2019-02-06T23:55:15.182Z,10.93
2019-02-06T23:57:43.432Z,10.40
